This is the latest recevied weather packets stored in our database for station/object YN1JLX-13. If no packets are shown the sender has not sent any weather packets the latest 1 day(s).
| Time | Temp. | Humidity | Pressure | Rain* | Wind** | Luminosity | Snow |
|---|---|---|---|---|---|---|---|
| 1778051734 | 18.89° C | 73% | 1012 hPa | 0 mm | - | - | - |
| 1778050533 | 21.11° C | 73% | 1012 hPa | 0 mm | - | - | - |
| 1778048732 | 19.44° C | 69% | 1012 hPa | 0 mm | - | - | - |
| 1778048132 | 20.56° C | 69% | 1012 hPa | 0 mm | - | - | - |
| 1778046331 | 20.56° C | 68% | 1012 hPa | 0 mm | - | - | - |
| 1778044530 | 20.56° C | 68% | 1012 hPa | 0 mm | - | - | - |
| 1778043329 | 22.22° C | 68% | 1012 hPa | 0 mm | - | - | - |
| 1778042128 | 21.67° C | 68% | 1012 hPa | 0 mm | - | - | - |
| 1778041528 | 22.22° C | 68% | 1012 hPa | 0 mm | - | - | - |
| 1778040927 | 22.78° C | 68% | 1012 hPa | 0 mm | - | - | - |
| 1778040327 | 22.22° C | 67% | 1012 hPa | 0 mm | - | - | - |
| 1778039727 | 22.78° C | 67% | 1012 hPa | 0 mm | - | - | - |
| 1778038526 | 22.78° C | 65% | 1012 hPa | 0 mm | - | - | - |
| 1778037926 | 21.67° C | 63% | 1011 hPa | 0 mm | - | - | - |
| 1778036725 | 23.89° C | 63% | 1011 hPa | 0 mm | - | - | - |
| 1778036125 | 23.89° C | 63% | 1011 hPa | 0 mm | - | - | - |
| 1778034924 | 23.89° C | 59% | 1011 hPa | 0 mm | - | - | - |
| 1778034324 | 22.78° C | 54% | 1011 hPa | 0 mm | - | - | - |
| 1778033123 | 23.89° C | 54% | 1011 hPa | 0 mm | - | - | - |
| 1778032523 | 24.44° C | 54% | 1011 hPa | 0 mm | - | - | - |
| 1778031922 | 25° C | 54% | 1010 hPa | 0 mm | - | - | - |
| 1778031322 | 23.89° C | 50% | 1010 hPa | 0 mm | - | - | - |
| 1778030722 | 24.44° C | 49% | 1010 hPa | 0 mm | - | - | - |
| 1778028921 | 25.56° C | 49% | 1010 hPa | 0 mm | - | - | - |
| 1778027720 | 25° C | 46% | 1010 hPa | 0 mm | - | - | - |
* Rain latest hour (hover to see other rain measurements)
** Current wind speed in m/s (hover to see current wind gust speed)